Time;durP1;ratioP1;P1;durP2;ratioP2;P2;SDS_P1;SDS_P2;PMS_P1;PMS_P2;Temp;Humidity;BMP_temperature;BMP_pressure;BME280_temperature;BME280_humidity;BME280_pressure;Samples;Min_cycle;Max_cycle;Signal;HPM_P1;HPM_P2
2021/07/27 00:01:27;;;;;;;48.03;29.83;;;;;;;;;;5061354;28;37262;-74
2021/07/27 00:03:53;;;;;;;50.58;31.52;;;;;;;;;;5047471;28;36996;-74
2021/07/27 00:06:20;;;;;;;50.80;32.17;;;;;;;;;;5061172;28;38544;-74
2021/07/27 00:08:46;;;;;;;75.15;40.08;;;;;;;;;;5063384;28;38718;-74
2021/07/27 00:11:12;;;;;;;48.78;29.70;;;;;;;;;;5062370;28;38188;-74
2021/07/27 00:13:39;;;;;;;54.85;31.52;;;;;;;;;;5062168;28;36781;-74
2021/07/27 00:16:06;;;;;;;53.55;31.38;;;;;;;;;;5046656;28;39057;-74
2021/07/27 00:18:33;;;;;;;66.30;36.45;;;;;;;;;;5061620;28;38602;-74
2021/07/27 00:21:03;;;;;;;63.67;36.65;;;;;;;;;;5060466;28;38149;-74
2021/07/27 00:23:29;;;;;;;75.53;39.08;;;;;;;;;;5046809;28;48685;-74
2021/07/27 00:25:56;;;;;;;88.25;43.30;;;;;;;;;;5047152;28;38661;-74
2021/07/27 00:28:22;;;;;;;56.85;35.42;;;;;;;;;;5046838;28;39729;-74
2021/07/27 00:30:49;;;;;;;71.40;40.47;;;;;;;;;;5047115;28;38261;-75
2021/07/27 00:33:15;;;;;;;72.57;39.90;;;;;;;;;;5046037;28;37183;-74
2021/07/27 00:35:41;;;;;;;73.78;40.28;;;;;;;;;;5062129;28;38696;-74
2021/07/27 00:38:08;;;;;;;67.60;39.15;;;;;;;;;;5033099;28;38765;-74
2021/07/27 00:40:38;;;;;;;76.00;40.40;;;;;;;;;;5023651;28;39420;-74
2021/07/27 00:43:08;;;;;;;73.07;41.67;;;;;;;;;;5044744;28;36822;-74
2021/07/27 00:45:34;;;;;;;82.97;42.92;;;;;;;;;;5046376;28;39694;-74
2021/07/27 00:48:01;;;;;;;80.57;44.72;;;;;;;;;;5045736;28;37970;-74
2021/07/27 00:50:27;;;;;;;87.35;44.03;;;;;;;;;;5044023;28;46713;-74
2021/07/27 00:52:57;;;;;;;96.78;45.35;;;;;;;;;;5044893;28;35704;-75
2021/07/27 00:55:24;;;;;;;116.07;50.45;;;;;;;;;;5044966;28;38758;-74
2021/07/27 00:57:50;;;;;;;82.85;43.63;;;;;;;;;;5045643;28;37869;-75
2021/07/27 01:00:16;;;;;;;87.65;45.97;;;;;;;;;;5044547;28;37060;-74
2021/07/27 01:02:43;;;;;;;83.72;43.40;;;;;;;;;;5045286;28;37031;-74
2021/07/27 01:05:13;;;;;;;95.15;47.33;;;;;;;;;;5044419;28;37712;-74
2021/07/27 01:07:40;;;;;;;84.60;46.05;;;;;;;;;;5045395;28;37387;-74
2021/07/27 01:10:10;;;;;;;108.90;51.13;;;;;;;;;;5045488;28;37906;-75
2021/07/27 01:12:38;;;;;;;119.53;52.53;;;;;;;;;;5047748;28;37311;-74
2021/07/27 01:15:04;;;;;;;111.63;51.72;;;;;;;;;;5044901;28;39891;-74
2021/07/27 01:17:31;;;;;;;103.97;48.95;;;;;;;;;;5061495;28;38486;-74
2021/07/27 01:20:12;;;;;;;114.10;50.85;;;;;;;;;;5054708;28;37421;-74
2021/07/27 01:44:45;;;;;;;106.05;50.08;;;;;;;;;;5018206;28;48344;-74
2021/07/27 01:47:12;;;;;;;136.07;53.35;;;;;;;;;;5041020;28;40184;-74
2021/07/27 01:49:39;;;;;;;101.85;50.35;;;;;;;;;;5042266;28;37393;-74
2021/07/27 01:52:09;;;;;;;120.70;54.35;;;;;;;;;;5025465;28;38968;-74
2021/07/27 01:54:45;;;;;;;136.98;56.30;;;;;;;;;;5043701;28;37233;-74
2021/07/27 01:57:12;;;;;;;157.95;61.97;;;;;;;;;;5035953;28;38792;-74
2021/07/27 01:59:39;;;;;;;125.32;55.92;;;;;;;;;;5023613;28;38349;-75
2021/07/27 02:02:06;;;;;;;133.15;54.90;;;;;;;;;;5022686;28;37274;-74
2021/07/27 02:04:33;;;;;;;140.00;58.47;;;;;;;;;;5040232;28;36081;-74
2021/07/27 02:06:59;;;;;;;96.70;49.47;;;;;;;;;;5025893;28;38660;-74
2021/07/27 02:09:36;;;;;;;126.38;54.90;;;;;;;;;;5025263;28;39397;-74
2021/07/27 02:12:02;;;;;;;121.35;54.75;;;;;;;;;;5039841;28;38761;-74
2021/07/27 02:15:04;;;;;;;114.22;54.05;;;;;;;;;;5024888;28;37931;-74
2021/07/27 02:17:21;;;;;;;150.60;60.50;;;;;;;;;;5003663;28;38821;-74
2021/07/27 02:19:48;;;;;;;134.48;59.92;;;;;;;;;;5042219;28;39403;-74
2021/07/27 02:22:14;;;;;;;106.15;50.83;;;;;;;;;;5064916;28;39270;-74
2021/07/27 02:24:40;;;;;;;128.75;58.65;;;;;;;;;;5066117;28;37735;-74
2021/07/27 02:27:07;;;;;;;102.53;52.05;;;;;;;;;;5062303;28;39256;-74
2021/07/27 02:29:33;;;;;;;117.55;56.55;;;;;;;;;;5062776;28;38520;-74
2021/07/27 02:31:59;;;;;;;108.05;54.75;;;;;;;;;;5063578;28;37326;-74
2021/07/27 02:34:31;;;;;;;104.88;51.50;;;;;;;;;;5064240;28;36957;-74
2021/07/27 02:36:57;;;;;;;98.60;50.97;;;;;;;;;;5064895;28;38466;-74
2021/07/27 02:39:24;;;;;;;114.85;53.15;;;;;;;;;;5065698;28;38411;-74
2021/07/27 02:41:50;;;;;;;106.43;54.17;;;;;;;;;;5064339;28;38452;-74
2021/07/27 02:44:16;;;;;;;76.93;47.15;;;;;;;;;;5063091;28;36969;-74
2021/07/27 02:46:43;;;;;;;84.38;48.17;;;;;;;;;;5063642;28;39647;-74
2021/07/27 02:49:09;;;;;;;87.07;48.35;;;;;;;;;;5065522;28;38606;-74
2021/07/27 02:51:36;;;;;;;88.93;47.08;;;;;;;;;;5046317;28;38542;-74
2021/07/27 02:54:02;;;;;;;103.47;53.45;;;;;;;;;;5046663;28;36185;-74
2021/07/27 02:56:28;;;;;;;110.28;54.17;;;;;;;;;;5063577;28;37907;-74
2021/07/27 02:58:55;;;;;;;103.93;53.10;;;;;;;;;;5064709;28;37311;-74
2021/07/27 03:01:21;;;;;;;98.28;50.72;;;;;;;;;;5063775;28;38314;-74
2021/07/27 03:03:48;;;;;;;107.38;52.92;;;;;;;;;;5065185;28;35862;-74
2021/07/27 03:06:16;;;;;;;89.13;48.53;;;;;;;;;;5064851;28;37698;-74
2021/07/27 03:09:03;;;;;;;91.03;49.35;;;;;;;;;;5066554;28;37385;-74
2021/07/27 03:11:30;;;;;;;95.93;48.20;;;;;;;;;;5065515;28;47054;-74
2021/07/27 03:13:56;;;;;;;95.00;48.70;;;;;;;;;;5068654;28;37072;-74
2021/07/27 03:16:24;;;;;;;86.55;47.67;;;;;;;;;;5064975;28;37938;-74
2021/07/27 03:18:56;;;;;;;106.65;50.40;;;;;;;;;;5066065;28;39127;-74
2021/07/27 03:21:26;;;;;;;91.43;45.83;;;;;;;;;;5065141;28;38561;-74
2021/07/27 03:23:53;;;;;;;75.25;42.97;;;;;;;;;;5066684;28;35992;-74
2021/07/27 03:26:20;;;;;;;82.20;43.35;;;;;;;;;;5065501;28;37592;-74
2021/07/27 03:28:47;;;;;;;68.72;41.35;;;;;;;;;;5065797;28;38613;-74
2021/07/27 03:31:14;;;;;;;83.22;46.55;;;;;;;;;;5067943;28;39278;-74
2021/07/27 03:33:40;;;;;;;86.82;44.95;;;;;;;;;;5066801;28;36807;-74
2021/07/27 03:36:07;;;;;;;87.68;43.78;;;;;;;;;;5066722;28;39832;-74
2021/07/27 03:38:40;;;;;;;68.10;38.50;;;;;;;;;;5067776;28;39247;-74
2021/07/27 03:41:07;;;;;;;65.93;38.80;;;;;;;;;;5066999;28;39053;-74
2021/07/27 03:43:34;;;;;;;76.70;40.88;;;;;;;;;;5066495;28;36969;-74
2021/07/27 03:46:00;;;;;;;76.30;41.13;;;;;;;;;;5049416;28;39203;-74
2021/07/27 03:48:27;;;;;;;63.28;38.83;;;;;;;;;;5048776;28;38643;-74
2021/07/27 03:50:53;;;;;;;69.95;38.40;;;;;;;;;;5065423;28;38650;-74
2021/07/27 03:53:23;;;;;;;68.55;39.70;;;;;;;;;;5067506;28;37028;-74
2021/07/27 03:55:49;;;;;;;59.28;35.75;;;;;;;;;;5067716;28;39206;-74
2021/07/27 03:58:16;;;;;;;63.70;39.17;;;;;;;;;;5064963;28;37388;-74
2021/07/27 04:00:42;;;;;;;67.78;37.50;;;;;;;;;;5065970;28;38203;-74
2021/07/27 04:03:09;;;;;;;53.03;33.67;;;;;;;;;;5049379;28;36107;-74
2021/07/27 04:05:35;;;;;;;53.65;35.30;;;;;;;;;;5048598;28;37874;-74
2021/07/27 04:08:02;;;;;;;65.43;38.50;;;;;;;;;;5050254;28;38853;-74
2021/07/27 04:10:28;;;;;;;61.45;37.88;;;;;;;;;;5066690;28;38646;-74
2021/07/27 04:12:55;;;;;;;64.63;39.35;;;;;;;;;;5049832;28;37367;-74
2021/07/27 04:15:24;;;;;;;64.18;39.47;;;;;;;;;;5067165;28;39459;-74
2021/07/27 04:17:50;;;;;;;56.45;38.45;;;;;;;;;;5049243;28;37996;-74
2021/07/27 04:20:17;;;;;;;67.55;42.95;;;;;;;;;;5063175;28;36897;-74
2021/07/27 04:22:43;;;;;;;60.97;43.47;;;;;;;;;;5067246;28;37382;-74
2021/07/27 04:25:10;;;;;;;69.10;46.05;;;;;;;;;;5063049;28;37780;-74
2021/07/27 04:27:36;;;;;;;69.05;44.67;;;;;;;;;;5066654;28;39406;-74
2021/07/27 04:30:03;;;;;;;54.72;36.90;;;;;;;;;;5067612;28;37985;-74
2021/07/27 04:32:29;;;;;;;63.72;39.67;;;;;;;;;;5065156;28;48578;-74
2021/07/27 04:34:55;;;;;;;50.03;36.13;;;;;;;;;;5065733;28;37712;-74
2021/07/27 04:37:22;;;;;;;50.17;36.50;;;;;;;;;;5065160;28;37482;-74
2021/07/27 04:39:52;;;;;;;56.00;36.95;;;;;;;;;;5066095;28;38708;-74
2021/07/27 04:42:18;;;;;;;47.97;34.70;;;;;;;;;;5066539;28;37202;-75
2021/07/27 04:44:44;;;;;;;52.13;34.80;;;;;;;;;;5064964;28;37916;-74
2021/07/27 04:47:11;;;;;;;50.78;34.30;;;;;;;;;;5065458;28;38913;-74
2021/07/27 04:49:37;;;;;;;43.55;32.50;;;;;;;;;;5065466;28;37494;-74
2021/07/27 04:52:04;;;;;;;46.00;33.05;;;;;;;;;;5063924;28;36448;-74
2021/07/27 04:54:41;;;;;;;47.30;32.90;;;;;;;;;;5064526;28;38237;-74
2021/07/27 04:57:10;;;;;;;47.55;33.38;;;;;;;;;;5064636;28;37421;-74
2021/07/27 04:59:37;;;;;;;50.10;35.10;;;;;;;;;;5064854;28;37417;-74
2021/07/27 05:02:03;;;;;;;50.10;35.22;;;;;;;;;;5063562;28;36685;-74
2021/07/27 05:04:30;;;;;;;47.13;35.05;;;;;;;;;;5065314;28;39612;-74
2021/07/27 05:06:56;;;;;;;57.45;40.55;;;;;;;;;;5066491;28;39226;-74
2021/07/27 05:09:22;;;;;;;57.80;42.58;;;;;;;;;;5064558;28;37466;-74
2021/07/27 05:11:49;;;;;;;58.28;43.33;;;;;;;;;;5064406;28;36897;-74
2021/07/27 05:14:15;;;;;;;53.65;40.30;;;;;;;;;;5047474;28;39369;-74
2021/07/27 05:16:41;;;;;;;52.78;41.70;;;;;;;;;;5067045;28;38426;-74
2021/07/27 05:19:08;;;;;;;52.05;39.05;;;;;;;;;;5065155;28;37677;-74
2021/07/27 05:21:34;;;;;;;50.28;38.50;;;;;;;;;;5045960;28;36637;-74
2021/07/27 05:24:02;;;;;;;47.00;38.10;;;;;;;;;;5066629;28;38899;-74
2021/07/27 05:26:28;;;;;;;49.78;37.28;;;;;;;;;;5064702;28;49003;-74
2021/07/27 05:28:55;;;;;;;45.47;35.55;;;;;;;;;;5063009;28;37372;-74
2021/07/27 05:31:23;;;;;;;42.45;33.83;;;;;;;;;;5065520;28;37899;-74
2021/07/27 05:33:49;;;;;;;39.33;31.85;;;;;;;;;;5065907;28;38753;-74
2021/07/27 05:36:16;;;;;;;43.10;31.48;;;;;;;;;;5046352;28;37159;-74
2021/07/27 05:38:42;;;;;;;38.80;30.08;;;;;;;;;;5065206;28;37813;-74
2021/07/27 05:41:08;;;;;;;39.90;29.83;;;;;;;;;;5065554;28;36443;-74
2021/07/27 05:43:35;;;;;;;38.13;29.17;;;;;;;;;;5064132;28;39562;-74
2021/07/27 05:46:04;;;;;;;36.83;25.33;;;;;;;;;;5047885;28;38798;-74
2021/07/27 05:48:32;;;;;;;31.25;24.52;;;;;;;;;;5048083;28;36902;-74
2021/07/27 05:50:58;;;;;;;32.58;27.00;;;;;;;;;;5046947;28;36148;-74
2021/07/27 05:53:25;;;;;;;32.70;23.60;;;;;;;;;;5047442;28;38260;-74
2021/07/27 05:55:51;;;;;;;31.27;24.60;;;;;;;;;;5065201;28;38307;-74
2021/07/27 05:58:17;;;;;;;30.05;22.70;;;;;;;;;;5063061;28;38208;-74
2021/07/27 06:00:44;;;;;;;30.95;23.10;;;;;;;;;;5065127;28;37503;-74
2021/07/27 06:03:12;;;;;;;24.85;20.40;;;;;;;;;;5065619;28;38665;-74
2021/07/27 06:05:38;;;;;;;27.42;20.10;;;;;;;;;;5063842;28;39637;-74
2021/07/27 06:08:05;;;;;;;26.23;20.17;;;;;;;;;;5047479;28;37218;-74
2021/07/27 06:10:31;;;;;;;27.40;20.80;;;;;;;;;;5046376;28;36007;-74
2021/07/27 06:12:57;;;;;;;24.38;20.25;;;;;;;;;;5048871;28;37799;-74
2021/07/27 06:15:23;;;;;;;29.27;21.70;;;;;;;;;;5046998;28;38116;-74
2021/07/27 06:17:50;;;;;;;25.13;21.08;;;;;;;;;;5048669;28;38762;-74
2021/07/27 06:20:17;;;;;;;26.27;21.15;;;;;;;;;;5064774;28;36798;-74
2021/07/27 06:22:43;;;;;;;28.05;21.48;;;;;;;;;;5067122;28;39948;-74
2021/07/27 06:25:12;;;;;;;27.33;22.08;;;;;;;;;;5064582;28;38250;-74
2021/07/27 06:27:38;;;;;;;30.02;24.25;;;;;;;;;;5066126;28;39086;-74
2021/07/27 06:30:07;;;;;;;34.00;25.55;;;;;;;;;;5065152;28;37201;-74
2021/07/27 06:32:34;;;;;;;38.03;26.15;;;;;;;;;;5063870;28;48695;-74
2021/07/27 06:35:00;;;;;;;32.72;25.38;;;;;;;;;;5065720;28;38211;-74
2021/07/27 06:37:26;;;;;;;33.05;26.42;;;;;;;;;;5063886;28;38425;-74
2021/07/27 06:39:53;;;;;;;35.60;23.25;;;;;;;;;;5063407;28;36754;-74
2021/07/27 06:42:19;;;;;;;29.83;23.42;;;;;;;;;;5067920;28;38673;-74
2021/07/27 06:44:46;;;;;;;31.80;23.33;;;;;;;;;;5067130;28;37220;-74
2021/07/27 06:47:12;;;;;;;29.30;20.95;;;;;;;;;;5065629;28;37011;-74
2021/07/27 06:49:38;;;;;;;27.08;19.92;;;;;;;;;;5068519;28;37981;-74
2021/07/27 06:52:05;;;;;;;26.20;21.30;;;;;;;;;;5049794;28;38043;-75
2021/07/27 06:54:33;;;;;;;28.20;21.05;;;;;;;;;;5066647;28;39285;-74
2021/07/27 06:57:00;;;;;;;32.72;21.70;;;;;;;;;;5050284;28;36949;-74
2021/07/27 06:59:26;;;;;;;29.80;22.02;;;;;;;;;;5068284;28;37449;-75
2021/07/27 07:01:52;;;;;;;29.55;21.13;;;;;;;;;;5067491;28;38616;-75
2021/07/27 07:04:21;;;;;;;30.23;21.90;;;;;;;;;;5068375;28;38789;-74
2021/07/27 07:06:48;;;;;;;28.80;21.30;;;;;;;;;;5066487;28;38993;-75
2021/07/27 07:09:14;;;;;;;30.98;21.92;;;;;;;;;;5068540;28;38004;-74
2021/07/27 07:11:42;;;;;;;27.48;20.60;;;;;;;;;;5067436;28;39694;-75
2021/07/27 07:14:08;;;;;;;27.45;21.40;;;;;;;;;;5049652;28;37167;-75
2021/07/27 07:16:35;;;;;;;32.50;21.33;;;;;;;;;;5067690;28;38415;-75
2021/07/27 07:19:01;;;;;;;26.08;21.05;;;;;;;;;;5067321;28;36297;-74
2021/07/27 07:21:27;;;;;;;27.33;20.58;;;;;;;;;;5047683;28;47457;-74
2021/07/27 07:23:54;;;;;;;31.13;22.08;;;;;;;;;;5068572;28;38900;-74
2021/07/27 07:26:20;;;;;;;32.72;21.95;;;;;;;;;;5065737;28;37096;-74
2021/07/27 07:28:46;;;;;;;26.55;20.80;;;;;;;;;;5065624;28;36618;-74
2021/07/27 07:31:16;;;;;;;31.55;22.00;;;;;;;;;;5065876;28;39015;-75
2021/07/27 07:33:43;;;;;;;32.25;20.85;;;;;;;;;;5068011;28;38349;-75
2021/07/27 07:36:10;;;;;;;26.45;21.23;;;;;;;;;;5066535;28;39052;-75
2021/07/27 07:38:36;;;;;;;30.73;20.88;;;;;;;;;;5067680;28;37418;-74
2021/07/27 07:41:09;;;;;;;24.95;19.40;;;;;;;;;;5065790;28;41090;-74
2021/07/27 07:43:36;;;;;;;30.13;21.55;;;;;;;;;;5049002;28;40016;-74
2021/07/27 07:46:03;;;;;;;28.70;21.63;;;;;;;;;;5049308;28;38606;-75
2021/07/27 07:48:29;;;;;;;28.25;20.92;;;;;;;;;;5049508;28;37030;-74
2021/07/27 07:50:55;;;;;;;22.65;18.95;;;;;;;;;;5046185;28;37936;-74
2021/07/27 07:53:22;;;;;;;27.13;20.42;;;;;;;;;;5048560;28;38232;-75
2021/07/27 07:55:48;;;;;;;31.33;20.95;;;;;;;;;;5067876;28;39162;-77
2021/07/27 07:58:14;;;;;;;25.70;20.38;;;;;;;;;;5065878;28;37376;-75
2021/07/27 08:00:41;;;;;;;24.55;19.45;;;;;;;;;;5050420;28;38489;-74
2021/07/27 08:03:07;;;;;;;23.67;18.65;;;;;;;;;;5049600;28;37409;-75
2021/07/27 08:05:34;;;;;;;25.27;18.90;;;;;;;;;;5067530;28;38375;-74
2021/07/27 08:08:00;;;;;;;24.27;19.60;;;;;;;;;;5051615;28;36789;-75
2021/07/27 08:10:26;;;;;;;25.60;17.98;;;;;;;;;;5048958;28;37559;-74
2021/07/27 08:12:53;;;;;;;26.35;18.48;;;;;;;;;;5051190;28;37321;-74
2021/07/27 08:15:24;;;;;;;25.83;18.88;;;;;;;;;;5066275;28;38212;-75
2021/07/27 08:17:51;;;;;;;22.77;18.30;;;;;;;;;;5065897;28;36160;-74
2021/07/27 08:20:17;;;;;;;20.45;16.98;;;;;;;;;;5064027;28;37584;-74
2021/07/27 08:22:43;;;;;;;23.10;18.42;;;;;;;;;;5065346;28;38366;-74
2021/07/27 08:25:18;;;;;;;23.27;17.85;;;;;;;;;;5049615;28;37095;-74
2021/07/27 08:27:45;;;;;;;27.05;20.50;;;;;;;;;;5048064;28;37378;-74
2021/07/27 08:30:13;;;;;;;26.17;20.55;;;;;;;;;;5063167;28;38228;-75
2021/07/27 08:32:50;;;;;;;26.60;18.95;;;;;;;;;;5047565;28;37774;-74
2021/07/27 08:35:17;;;;;;;29.65;21.10;;;;;;;;;;5064499;28;36973;-74
2021/07/27 08:37:44;;;;;;;26.40;20.65;;;;;;;;;;5065694;28;36921;-74
2021/07/27 08:40:10;;;;;;;25.35;19.23;;;;;;;;;;5065278;28;39381;-74
2021/07/27 08:42:39;;;;;;;22.10;17.83;;;;;;;;;;5067573;28;38836;-74
2021/07/27 08:45:06;;;;;;;22.08;17.65;;;;;;;;;;5065947;28;38181;-75
2021/07/27 08:47:32;;;;;;;22.15;17.15;;;;;;;;;;5066466;28;38077;-74
2021/07/27 08:50:02;;;;;;;20.45;16.13;;;;;;;;;;5048789;28;38807;-74
2021/07/27 08:52:29;;;;;;;21.70;16.10;;;;;;;;;;5047852;28;47983;-74
2021/07/27 08:54:55;;;;;;;18.90;15.18;;;;;;;;;;5048895;28;37274;-74
2021/07/27 08:57:22;;;;;;;21.00;15.82;;;;;;;;;;5065954;28;36944;-75
2021/07/27 08:59:48;;;;;;;25.02;15.98;;;;;;;;;;5064437;28;40566;-74
2021/07/27 09:02:25;;;;;;;29.52;17.27;;;;;;;;;;5064560;28;37462;-74
2021/07/27 09:04:51;;;;;;;19.40;14.90;;;;;;;;;;5066139;28;37870;-75
2021/07/27 09:07:25;;;;;;;23.73;17.00;;;;;;;;;;5063239;28;36898;-74
2021/07/27 09:09:52;;;;;;;24.05;16.05;;;;;;;;;;5048405;28;37552;-74
2021/07/27 09:12:19;;;;;;;22.83;17.48;;;;;;;;;;5067091;28;38537;-75
2021/07/27 09:14:47;;;;;;;27.85;19.92;;;;;;;;;;5045956;28;37381;-75
2021/07/27 09:17:13;;;;;;;21.27;16.92;;;;;;;;;;5049218;28;36139;-74
2021/07/27 09:19:41;;;;;;;23.67;18.10;;;;;;;;;;5048598;28;38637;-75
2021/07/27 09:22:07;;;;;;;25.63;19.83;;;;;;;;;;5065728;28;38526;-75
2021/07/27 09:24:34;;;;;;;27.45;20.65;;;;;;;;;;5068536;28;37923;-75
2021/07/27 09:27:01;;;;;;;26.50;19.85;;;;;;;;;;5064762;28;37998;-74
2021/07/27 09:29:28;;;;;;;22.90;17.52;;;;;;;;;;5064277;28;46825;-75
2021/07/27 09:31:58;;;;;;;19.38;13.70;;;;;;;;;;5067190;28;38498;-75
2021/07/27 09:34:29;;;;;;;16.20;10.52;;;;;;;;;;5067663;28;39239;-75
2021/07/27 09:37:14;;;;;;;14.13;9.63;;;;;;;;;;5064504;28;36246;-77
2021/07/27 09:39:40;;;;;;;15.80;6.50;;;;;;;;;;5066307;28;48875;-77
2021/07/27 09:42:08;;;;;;;10.63;5.18;;;;;;;;;;5065432;28;38376;-77
2021/07/27 09:44:36;;;;;;;6.90;4.15;;;;;;;;;;5048396;28;38008;-77
2021/07/27 09:47:03;;;;;;;11.00;4.18;;;;;;;;;;5047279;28;36994;-77
2021/07/27 09:49:29;;;;;;;12.70;4.43;;;;;;;;;;5065925;28;39478;-77
2021/07/27 09:51:56;;;;;;;10.13;4.13;;;;;;;;;;5047950;28;37503;-74
2021/07/27 09:54:23;;;;;;;8.13;3.20;;;;;;;;;;5047719;28;36909;-74
2021/07/27 09:56:54;;;;;;;11.48;3.70;;;;;;;;;;5063633;28;36876;-74
2021/07/27 09:59:21;;;;;;;9.73;3.88;;;;;;;;;;5065738;28;39213;-75
2021/07/27 10:01:54;;;;;;;13.57;3.10;;;;;;;;;;5047549;28;38737;-74
2021/07/27 10:04:31;;;;;;;12.60;3.53;;;;;;;;;;5064878;28;38740;-76
2021/07/27 10:06:58;;;;;;;10.07;3.50;;;;;;;;;;5047713;28;37124;-74
2021/07/27 10:09:26;;;;;;;10.27;2.58;;;;;;;;;;5047976;28;39067;-74
2021/07/27 10:11:53;;;;;;;12.82;3.42;;;;;;;;;;5064616;28;38401;-74
2021/07/27 10:14:20;;;;;;;8.85;3.30;;;;;;;;;;5064586;28;38077;-74
2021/07/27 10:16:47;;;;;;;10.65;3.30;;;;;;;;;;5049258;28;37335;-74
2021/07/27 10:19:19;;;;;;;13.23;3.03;;;;;;;;;;5067258;28;37915;-74
2021/07/27 10:21:47;;;;;;;14.50;4.20;;;;;;;;;;5067052;28;38343;-74
2021/07/27 10:24:19;;;;;;;11.07;4.40;;;;;;;;;;5066767;28;37480;-74
2021/07/27 10:26:45;;;;;;;;;;;;;;;;;;5070194;28;36870;-74
2021/07/27 10:29:12;;;;;;;8.50;3.08;;;;;;;;;;5070220;28;38810;-74
2021/07/27 10:31:39;;;;;;;8.55;3.08;;;;;;;;;;5067060;28;38211;-74
2021/07/27 10:34:07;;;;;;;11.65;3.45;;;;;;;;;;5052148;28;37027;-74
2021/07/27 10:36:36;;;;;;;10.20;3.25;;;;;;;;;;5069454;28;36943;-74
2021/07/27 10:39:06;;;;;;;12.90;3.47;;;;;;;;;;5067293;28;39129;-74
2021/07/27 10:41:36;;;;;;;11.63;3.90;;;;;;;;;;5067581;28;37577;-74
2021/07/27 10:44:13;;;;;;;14.07;4.00;;;;;;;;;;5068757;28;38072;-74
2021/07/27 10:46:40;;;;;;;12.05;3.90;;;;;;;;;;5067501;28;35961;-74
2021/07/27 10:49:14;;;;;;;10.70;3.85;;;;;;;;;;5067765;28;38626;-74
2021/07/27 10:51:40;;;;;;;9.85;3.25;;;;;;;;;;5051416;28;38505;-74
2021/07/27 10:54:06;;;;;;;11.73;3.28;;;;;;;;;;5049927;28;38523;-74
2021/07/27 10:56:33;;;;;;;15.20;3.40;;;;;;;;;;5069374;28;36580;-74
2021/07/27 10:59:00;;;;;;;8.68;3.67;;;;;;;;;;5066656;28;37702;-74
2021/07/27 11:01:31;;;;;;;10.68;3.80;;;;;;;;;;5068335;28;38497;-74
2021/07/27 11:04:10;;;;;;;7.22;3.90;;;;;;;;;;5068324;28;37128;-74
2021/07/27 11:06:37;;;;;;;7.38;3.47;;;;;;;;;;5049391;28;47332;-74
2021/07/27 11:09:05;;;;;;;8.35;3.38;;;;;;;;;;5050497;28;38165;-74
2021/07/27 11:11:31;;;;;;;8.95;3.65;;;;;;;;;;5050531;28;38440;-74
2021/07/27 11:13:58;;;;;;;6.07;3.05;;;;;;;;;;5067919;28;39279;-74
2021/07/27 11:16:24;;;;;;;8.38;3.55;;;;;;;;;;5068369;28;37999;-75
2021/07/27 11:18:51;;;;;;;11.05;3.83;;;;;;;;;;5067460;28;37931;-75
2021/07/27 11:21:18;;;;;;;7.57;2.95;;;;;;;;;;5066392;28;39906;-75
2021/07/27 11:23:45;;;;;;;9.13;3.33;;;;;;;;;;5051952;28;36960;-75
2021/07/27 11:26:11;;;;;;;6.93;3.15;;;;;;;;;;5066251;28;37201;-75
2021/07/27 11:28:38;;;;;;;8.10;3.28;;;;;;;;;;5066655;28;39298;-75
2021/07/27 11:31:17;;;;;;;8.45;2.95;;;;;;;;;;5067356;28;37833;-75
2021/07/27 11:33:50;;;;;;;8.93;3.45;;;;;;;;;;5068641;28;37830;-75
2021/07/27 11:36:20;;;;;;;7.43;3.05;;;;;;;;;;5066528;28;35869;-75
2021/07/27 11:38:47;;;;;;;9.00;3.03;;;;;;;;;;5068036;28;38189;-75
2021/07/27 11:41:14;;;;;;;7.55;3.47;;;;;;;;;;5049194;28;38529;-75
2021/07/27 11:43:41;;;;;;;11.90;3.55;;;;;;;;;;5050500;28;38351;-75
2021/07/27 11:46:09;;;;;;;6.82;3.40;;;;;;;;;;5050186;28;35893;-75
2021/07/27 11:48:36;;;;;;;10.55;3.35;;;;;;;;;;5050580;28;38035;-75
2021/07/27 11:51:03;;;;;;;7.20;2.90;;;;;;;;;;5049410;28;39115;-75
2021/07/27 11:53:48;;;;;;;7.82;3.20;;;;;;;;;;5068549;28;38423;-75
2021/07/27 11:56:15;;;;;;;6.90;3.03;;;;;;;;;;5065990;28;36554;-75
2021/07/27 11:58:42;;;;;;;9.98;3.90;;;;;;;;;;5050028;28;39172;-75
2021/07/27 12:01:08;;;;;;;5.70;3.00;;;;;;;;;;5049207;28;38966;-75
2021/07/27 12:03:35;;;;;;;7.20;2.67;;;;;;;;;;5067838;28;39355;-75
2021/07/27 12:06:10;;;;;;;6.38;2.80;;;;;;;;;;5048914;28;37116;-75
2021/07/27 12:08:36;;;;;;;7.53;2.60;;;;;;;;;;5050273;28;39323;-75
2021/07/27 12:11:03;;;;;;;8.38;3.08;;;;;;;;;;5048252;28;38608;-75
2021/07/27 12:13:29;;;;;;;5.80;2.60;;;;;;;;;;5067198;28;38194;-75
2021/07/27 12:15:56;;;;;;;9.60;2.90;;;;;;;;;;5065719;28;36206;-75
2021/07/27 12:18:23;;;;;;;9.13;3.30;;;;;;;;;;5065845;28;38239;-75
2021/07/27 12:20:50;;;;;;;7.93;3.85;;;;;;;;;;5065723;28;38474;-75
2021/07/27 12:23:18;;;;;;;7.35;3.13;;;;;;;;;;5065000;28;38018;-75
2021/07/27 12:25:45;;;;;;;5.95;2.45;;;;;;;;;;5067175;28;37642;-75
2021/07/27 12:28:11;;;;;;;9.07;3.33;;;;;;;;;;5067250;28;38674;-75
2021/07/27 12:30:38;;;;;;;6.90;2.88;;;;;;;;;;5064823;28;38159;-75
2021/07/27 12:33:04;;;;;;;8.38;3.17;;;;;;;;;;5048543;28;36897;-76
2021/07/27 12:35:30;;;;;;;5.90;2.75;;;;;;;;;;5048468;28;36372;-76
2021/07/27 12:37:57;;;;;;;9.90;2.80;;;;;;;;;;5048043;28;37726;-75
2021/07/27 12:40:24;;;;;;;7.30;2.90;;;;;;;;;;5066279;28;39011;-75
2021/07/27 12:42:50;;;;;;;7.35;3.17;;;;;;;;;;5066833;28;37155;-76
2021/07/27 12:45:16;;;;;;;7.30;3.40;;;;;;;;;;5065618;28;36861;-77
2021/07/27 12:47:43;;;;;;;6.60;3.17;;;;;;;;;;5067362;28;39767;-76
2021/07/27 12:50:09;;;;;;;7.90;2.88;;;;;;;;;;5048182;28;38893;-76
2021/07/27 12:52:36;;;;;;;7.10;2.70;;;;;;;;;;5067929;28;39020;-75
2021/07/27 12:55:02;;;;;;;5.93;3.00;;;;;;;;;;5068644;28;36974;-76
2021/07/27 12:57:29;;;;;;;8.10;3.20;;;;;;;;;;5065729;28;39444;-76
2021/07/27 12:59:55;;;;;;;8.32;3.33;;;;;;;;;;5065629;28;37476;-75
2021/07/27 13:02:24;;;;;;;7.88;3.38;;;;;;;;;;5065345;28;37005;-75
2021/07/27 13:04:52;;;;;;;7.28;3.15;;;;;;;;;;5066216;28;35822;-76
2021/07/27 13:07:18;;;;;;;8.82;3.90;;;;;;;;;;5065844;28;38952;-76
2021/07/27 13:09:44;;;;;;;7.90;4.55;;;;;;;;;;5067949;28;38690;-76
2021/07/27 13:12:11;;;;;;;9.43;4.95;;;;;;;;;;5066764;28;39352;-77
2021/07/27 13:14:37;;;;;;;11.98;5.07;;;;;;;;;;5067265;28;38097;-76
2021/07/27 13:17:04;;;;;;;8.25;4.57;;;;;;;;;;5066113;28;38672;-76
2021/07/27 13:19:30;;;;;;;10.77;5.10;;;;;;;;;;5065589;28;38628;-78
2021/07/27 13:21:57;;;;;;;7.07;4.50;;;;;;;;;;5065764;28;38903;-78
2021/07/27 13:24:23;;;;;;;7.00;3.90;;;;;;;;;;5067610;28;36922;-76
2021/07/27 13:26:50;;;;;;;9.43;5.25;;;;;;;;;;5065204;28;37688;-76
2021/07/27 13:29:16;;;;;;;8.02;4.85;;;;;;;;;;5065314;28;38655;-76
2021/07/27 13:31:42;;;;;;;8.70;4.97;;;;;;;;;;5065123;28;37128;-76
2021/07/27 13:34:09;;;;;;;6.60;4.57;;;;;;;;;;5064005;28;36150;-76
2021/07/27 13:36:35;;;;;;;5.07;4.20;;;;;;;;;;5047871;28;39557;-76
2021/07/27 13:39:02;;;;;;;12.48;5.90;;;;;;;;;;5067150;28;39608;-75
2021/07/27 13:41:28;;;;;;;7.32;5.00;;;;;;;;;;5065400;28;38293;-76
2021/07/27 13:43:54;;;;;;;7.78;4.93;;;;;;;;;;5065612;28;37109;-76
2021/07/27 13:46:21;;;;;;;9.48;7.00;;;;;;;;;;5067958;28;38726;-77
2021/07/27 13:48:47;;;;;;;12.25;8.80;;;;;;;;;;5049470;28;37604;-76
2021/07/27 13:51:13;;;;;;;13.10;8.93;;;;;;;;;;5065793;28;38871;-76
2021/07/27 13:53:40;;;;;;;14.55;10.32;;;;;;;;;;5069940;28;36912;-77
2021/07/27 13:56:06;;;;;;;12.35;10.38;;;;;;;;;;5066464;28;39564;-77
2021/07/27 13:58:32;;;;;;;14.70;10.77;;;;;;;;;;5048912;28;38314;-76
2021/07/27 14:01:02;;;;;;;11.23;9.95;;;;;;;;;;5063738;28;38094;-76
2021/07/27 14:03:29;;;;;;;14.95;12.10;;;;;;;;;;5065487;28;47091;-76
2021/07/27 14:05:55;;;;;;;13.95;11.65;;;;;;;;;;5066298;28;39009;-76
2021/07/27 14:08:22;;;;;;;16.98;12.48;;;;;;;;;;5066932;28;37140;-77
2021/07/27 14:10:48;;;;;;;14.60;11.55;;;;;;;;;;5064441;28;38244;-77
2021/07/27 14:13:15;;;;;;;14.30;11.15;;;;;;;;;;5067056;28;37255;-77
2021/07/27 14:15:41;;;;;;;14.00;11.43;;;;;;;;;;5066872;28;38398;-77
2021/07/27 14:18:08;;;;;;;15.35;10.77;;;;;;;;;;5065810;28;37327;-76
2021/07/27 14:20:35;;;;;;;15.68;11.30;;;;;;;;;;5066049;28;39049;-77
2021/07/27 14:23:01;;;;;;;13.35;11.55;;;;;;;;;;5066787;28;37091;-75
2021/07/27 14:25:28;;;;;;;15.02;10.43;;;;;;;;;;5048412;28;47293;-77
2021/07/27 14:27:57;;;;;;;15.88;11.27;;;;;;;;;;5071232;28;38826;-76
2021/07/27 14:30:24;;;;;;;12.20;10.48;;;;;;;;;;5067145;28;39417;-78
2021/07/27 14:32:51;;;;;;;15.90;11.15;;;;;;;;;;5069320;28;36087;-76
2021/07/27 14:35:17;;;;;;;15.50;11.43;;;;;;;;;;5067934;28;38963;-76
2021/07/27 14:37:44;;;;;;;17.65;12.10;;;;;;;;;;5066626;28;38713;-77
2021/07/27 14:40:12;;;;;;;15.55;11.02;;;;;;;;;;5065719;28;38016;-78
2021/07/27 14:42:38;;;;;;;15.05;11.82;;;;;;;;;;5066850;28;37439;-76
2021/07/27 14:45:05;;;;;;;15.43;11.85;;;;;;;;;;5063337;28;40073;-76
2021/07/27 14:47:31;;;;;;;15.80;10.93;;;;;;;;;;5065961;28;39270;-76